sensor_id;sensor_type;location;lat;lon;timestamp;temperature;humidity
530;DHT22;251;48.704;9.210;2023-06-10T00:00:21;15.20;28.50
530;DHT22;251;48.704;9.210;2023-06-10T00:02:48;15.30;28.90
530;DHT22;251;48.704;9.210;2023-06-10T00:05:15;15.00;29.20
530;DHT22;251;48.704;9.210;2023-06-10T00:07:42;15.20;29.30
530;DHT22;251;48.704;9.210;2023-06-10T00:10:09;15.20;29.20
530;DHT22;251;48.704;9.210;2023-06-10T00:12:37;14.90;29.40
530;DHT22;251;48.704;9.210;2023-06-10T00:15:05;14.90;29.70
530;DHT22;251;48.704;9.210;2023-06-10T00:17:32;14.90;30.00
530;DHT22;251;48.704;9.210;2023-06-10T00:19:59;14.90;31.00
530;DHT22;251;48.704;9.210;2023-06-10T00:22:30;14.80;31.20
530;DHT22;251;48.704;9.210;2023-06-10T00:24:57;14.80;31.40
530;DHT22;251;48.704;9.210;2023-06-10T00:27:24;14.70;31.10
530;DHT22;251;48.704;9.210;2023-06-10T00:29:57;14.70;31.30
530;DHT22;251;48.704;9.210;2023-06-10T00:32:24;14.80;31.40
530;DHT22;251;48.704;9.210;2023-06-10T00:34:51;14.60;31.50
530;DHT22;251;48.704;9.210;2023-06-10T00:37:18;14.70;30.90
530;DHT22;251;48.704;9.210;2023-06-10T00:39:45;14.30;31.00
530;DHT22;251;48.704;9.210;2023-06-10T00:42:11;14.50;31.10
530;DHT22;251;48.704;9.210;2023-06-10T00:44:38;14.70;31.40
530;DHT22;251;48.704;9.210;2023-06-10T00:47:07;14.70;32.80
530;DHT22;251;48.704;9.210;2023-06-10T00:49:34;14.20;32.40
530;DHT22;251;48.704;9.210;2023-06-10T00:52:01;14.50;32.80
530;DHT22;251;48.704;9.210;2023-06-10T00:54:29;14.10;33.00
530;DHT22;251;48.704;9.210;2023-06-10T00:56:56;14.50;33.60
530;DHT22;251;48.704;9.210;2023-06-10T00:59:23;14.20;32.80
530;DHT22;251;48.704;9.210;2023-06-10T01:01:50;14.50;33.40
530;DHT22;251;48.704;9.210;2023-06-10T01:04:18;14.20;33.40
530;DHT22;251;48.704;9.210;2023-06-10T01:06:53;14.20;33.40
530;DHT22;251;48.704;9.210;2023-06-10T01:09:28;14.00;34.40
530;DHT22;251;48.704;9.210;2023-06-10T01:12:02;14.10;35.50
530;DHT22;251;48.704;9.210;2023-06-10T01:14:35;14.00;34.90
530;DHT22;251;48.704;9.210;2023-06-10T01:17:06;14.00;35.30
530;DHT22;251;48.704;9.210;2023-06-10T01:19:36;14.20;35.20
530;DHT22;251;48.704;9.210;2023-06-10T01:22:04;13.90;35.10
530;DHT22;251;48.704;9.210;2023-06-10T01:24:33;13.80;36.00
530;DHT22;251;48.704;9.210;2023-06-10T01:27:05;13.60;36.50
530;DHT22;251;48.704;9.210;2023-06-10T01:29:37;13.90;36.60
530;DHT22;251;48.704;9.210;2023-06-10T01:32:10;13.70;36.90
530;DHT22;251;48.704;9.210;2023-06-10T01:34:39;13.60;37.00
530;DHT22;251;48.704;9.210;2023-06-10T01:37:13;13.80;36.90
530;DHT22;251;48.704;9.210;2023-06-10T01:39:41;13.70;37.60
530;DHT22;251;48.704;9.210;2023-06-10T01:42:09;13.60;38.30
530;DHT22;251;48.704;9.210;2023-06-10T01:44:39;13.70;38.80
530;DHT22;251;48.704;9.210;2023-06-10T01:47:07;13.40;38.60
530;DHT22;251;48.704;9.210;2023-06-10T01:49:34;13.40;38.60
530;DHT22;251;48.704;9.210;2023-06-10T01:52:01;13.50;37.70
530;DHT22;251;48.704;9.210;2023-06-10T01:54:29;13.50;39.20
530;DHT22;251;48.704;9.210;2023-06-10T01:56:57;13.60;40.00
530;DHT22;251;48.704;9.210;2023-06-10T01:59:24;13.60;40.00
530;DHT22;251;48.704;9.210;2023-06-10T02:01:50;13.70;40.10
530;DHT22;251;48.704;9.210;2023-06-10T02:04:17;13.60;41.00
530;DHT22;251;48.704;9.210;2023-06-10T02:06:44;13.60;41.60
530;DHT22;251;48.704;9.210;2023-06-10T02:09:11;13.40;41.90
530;DHT22;251;48.704;9.210;2023-06-10T02:11:39;13.30;42.40
530;DHT22;251;48.704;9.210;2023-06-10T02:14:06;13.40;41.70
530;DHT22;251;48.704;9.210;2023-06-10T02:16:33;13.20;42.30
530;DHT22;251;48.704;9.210;2023-06-10T02:19:00;13.40;42.50
530;DHT22;251;48.704;9.210;2023-06-10T02:21:32;13.30;42.60
530;DHT22;251;48.704;9.210;2023-06-10T02:24:00;13.10;42.30
530;DHT22;251;48.704;9.210;2023-06-10T02:26:27;13.30;42.40
530;DHT22;251;48.704;9.210;2023-06-10T02:28:58;13.50;42.90
530;DHT22;251;48.704;9.210;2023-06-10T02:31:26;13.20;43.10
530;DHT22;251;48.704;9.210;2023-06-10T02:33:54;13.00;44.40
530;DHT22;251;48.704;9.210;2023-06-10T02:36:21;13.00;44.00
530;DHT22;251;48.704;9.210;2023-06-10T02:38:49;13.10;44.50
530;DHT22;251;48.704;9.210;2023-06-10T02:41:17;13.20;44.60
530;DHT22;251;48.704;9.210;2023-06-10T02:43:44;12.80;44.40
530;DHT22;251;48.704;9.210;2023-06-10T02:46:12;12.70;44.10
530;DHT22;251;48.704;9.210;2023-06-10T02:48:41;12.80;45.20
530;DHT22;251;48.704;9.210;2023-06-10T02:51:10;13.00;44.60
530;DHT22;251;48.704;9.210;2023-06-10T02:53:40;13.00;45.10
530;DHT22;251;48.704;9.210;2023-06-10T02:56:10;13.10;46.20
530;DHT22;251;48.704;9.210;2023-06-10T02:58:38;12.60;45.60
530;DHT22;251;48.704;9.210;2023-06-10T03:01:06;12.70;46.40
530;DHT22;251;48.704;9.210;2023-06-10T03:03:44;12.90;47.10
530;DHT22;251;48.704;9.210;2023-06-10T03:06:14;12.60;47.70
530;DHT22;251;48.704;9.210;2023-06-10T03:08:41;12.40;47.80
530;DHT22;251;48.704;9.210;2023-06-10T03:11:13;12.60;48.50
530;DHT22;251;48.704;9.210;2023-06-10T03:13:40;12.50;47.20
530;DHT22;251;48.704;9.210;2023-06-10T03:16:09;12.50;47.90
530;DHT22;251;48.704;9.210;2023-06-10T03:18:37;12.60;47.70
530;DHT22;251;48.704;9.210;2023-06-10T03:21:06;12.50;47.00
530;DHT22;251;48.704;9.210;2023-06-10T03:23:34;12.40;48.20
530;DHT22;251;48.704;9.210;2023-06-10T03:26:01;12.70;49.80
530;DHT22;251;48.704;9.210;2023-06-10T03:28:30;12.40;50.50
530;DHT22;251;48.704;9.210;2023-06-10T03:30:57;12.50;50.80
530;DHT22;251;48.704;9.210;2023-06-10T03:33:25;12.60;50.70
530;DHT22;251;48.704;9.210;2023-06-10T03:35:52;12.40;51.00
530;DHT22;251;48.704;9.210;2023-06-10T03:38:21;12.50;50.20
530;DHT22;251;48.704;9.210;2023-06-10T03:40:48;12.40;50.20
530;DHT22;251;48.704;9.210;2023-06-10T03:43:14;12.40;49.80
530;DHT22;251;48.704;9.210;2023-06-10T03:45:41;12.40;50.20
530;DHT22;251;48.704;9.210;2023-06-10T03:48:09;12.50;49.50
530;DHT22;251;48.704;9.210;2023-06-10T03:50:43;12.50;49.80
530;DHT22;251;48.704;9.210;2023-06-10T03:53:10;12.60;50.10
530;DHT22;251;48.704;9.210;2023-06-10T03:55:42;12.40;49.30
530;DHT22;251;48.704;9.210;2023-06-10T03:58:09;12.40;49.10
530;DHT22;251;48.704;9.210;2023-06-10T04:00:38;12.60;49.40
530;DHT22;251;48.704;9.210;2023-06-10T04:03:07;12.70;48.20
530;DHT22;251;48.704;9.210;2023-06-10T04:05:43;12.40;49.20
530;DHT22;251;48.704;9.210;2023-06-10T04:08:10;12.70;49.20
530;DHT22;251;48.704;9.210;2023-06-10T04:10:37;12.70;49.30
530;DHT22;251;48.704;9.210;2023-06-10T04:13:05;12.90;48.60
530;DHT22;251;48.704;9.210;2023-06-10T04:15:38;12.90;48.10
530;DHT22;251;48.704;9.210;2023-06-10T04:18:09;12.70;47.40
530;DHT22;251;48.704;9.210;2023-06-10T04:20:36;12.70;48.50
530;DHT22;251;48.704;9.210;2023-06-10T04:23:03;12.90;48.20
530;DHT22;251;48.704;9.210;2023-06-10T04:25:30;13.30;49.00
530;DHT22;251;48.704;9.210;2023-06-10T04:27:57;13.10;48.30
530;DHT22;251;48.704;9.210;2023-06-10T04:30:26;13.30;47.90
530;DHT22;251;48.704;9.210;2023-06-10T04:32:53;13.30;47.00
530;DHT22;251;48.704;9.210;2023-06-10T04:35:20;13.50;47.10
530;DHT22;251;48.704;9.210;2023-06-10T04:37:48;13.70;46.60
530;DHT22;251;48.704;9.210;2023-06-10T04:40:15;13.70;46.60
530;DHT22;251;48.704;9.210;2023-06-10T04:42:42;13.80;45.80
530;DHT22;251;48.704;9.210;2023-06-10T04:45:09;13.90;45.10
530;DHT22;251;48.704;9.210;2023-06-10T04:47:38;14.00;44.70
530;DHT22;251;48.704;9.210;2023-06-10T04:50:06;14.10;45.30
530;DHT22;251;48.704;9.210;2023-06-10T04:52:33;14.00;45.20
530;DHT22;251;48.704;9.210;2023-06-10T04:55:00;14.30;44.30
530;DHT22;251;48.704;9.210;2023-06-10T04:57:27;14.10;43.90
530;DHT22;251;48.704;9.210;2023-06-10T04:59:54;14.30;44.60
530;DHT22;251;48.704;9.210;2023-06-10T05:02:21;14.50;44.40
530;DHT22;251;48.704;9.210;2023-06-10T05:04:49;14.60;44.20
530;DHT22;251;48.704;9.210;2023-06-10T05:07:15;14.90;44.20
530;DHT22;251;48.704;9.210;2023-06-10T05:09:42;15.20;43.50
530;DHT22;251;48.704;9.210;2023-06-10T05:12:10;15.30;43.70
530;DHT22;251;48.704;9.210;2023-06-10T05:14:37;15.00;42.00
530;DHT22;251;48.704;9.210;2023-06-10T05:17:04;15.50;41.80
530;DHT22;251;48.704;9.210;2023-06-10T05:19:32;15.60;38.90
530;DHT22;251;48.704;9.210;2023-06-10T05:22:00;15.90;39.30
530;DHT22;251;48.704;9.210;2023-06-10T05:24:27;15.70;35.50
530;DHT22;251;48.704;9.210;2023-06-10T05:26:53;16.00;37.90
530;DHT22;251;48.704;9.210;2023-06-10T05:29:20;16.20;39.80
530;DHT22;251;48.704;9.210;2023-06-10T05:31:47;16.30;39.70
530;DHT22;251;48.704;9.210;2023-06-10T05:34:13;16.50;39.30
530;DHT22;251;48.704;9.210;2023-06-10T05:36:40;16.80;37.20
530;DHT22;251;48.704;9.210;2023-06-10T05:39:09;17.10;31.70
530;DHT22;251;48.704;9.210;2023-06-10T05:41:36;17.10;30.00
530;DHT22;251;48.704;9.210;2023-06-10T05:44:03;17.20;27.50
530;DHT22;251;48.704;9.210;2023-06-10T05:46:30;17.40;26.00
530;DHT22;251;48.704;9.210;2023-06-10T05:48:56;17.70;25.10
530;DHT22;251;48.704;9.210;2023-06-10T05:51:23;17.70;23.60
530;DHT22;251;48.704;9.210;2023-06-10T05:53:51;17.90;22.10
530;DHT22;251;48.704;9.210;2023-06-10T05:56:19;18.00;22.20
530;DHT22;251;48.704;9.210;2023-06-10T05:58:46;18.20;21.10
530;DHT22;251;48.704;9.210;2023-06-10T06:01:14;18.30;20.70
530;DHT22;251;48.704;9.210;2023-06-10T06:03:41;18.50;20.50
530;DHT22;251;48.704;9.210;2023-06-10T06:06:07;18.60;20.30
530;DHT22;251;48.704;9.210;2023-06-10T06:08:35;18.70;19.10
530;DHT22;251;48.704;9.210;2023-06-10T06:11:02;18.80;19.00
530;DHT22;251;48.704;9.210;2023-06-10T06:13:30;18.90;18.80
530;DHT22;251;48.704;9.210;2023-06-10T06:15:57;19.00;18.70
530;DHT22;251;48.704;9.210;2023-06-10T06:18:24;19.10;18.40
530;DHT22;251;48.704;9.210;2023-06-10T06:20:51;19.20;18.00
530;DHT22;251;48.704;9.210;2023-06-10T06:23:17;19.30;18.90
530;DHT22;251;48.704;9.210;2023-06-10T06:25:44;19.40;18.40
530;DHT22;251;48.704;9.210;2023-06-10T06:28:11;19.50;17.60
530;DHT22;251;48.704;9.210;2023-06-10T06:30:39;19.60;17.40
530;DHT22;251;48.704;9.210;2023-06-10T06:33:06;19.70;17.10
530;DHT22;251;48.704;9.210;2023-06-10T06:35:33;19.70;17.60
530;DHT22;251;48.704;9.210;2023-06-10T06:38:00;19.80;16.50
530;DHT22;251;48.704;9.210;2023-06-10T06:40:28;20.00;17.40
530;DHT22;251;48.704;9.210;2023-06-10T06:42:55;20.10;15.90
530;DHT22;251;48.704;9.210;2023-06-10T06:45:35;20.20;15.20
530;DHT22;251;48.704;9.210;2023-06-10T06:48:05;20.30;16.40
530;DHT22;251;48.704;9.210;2023-06-10T06:50:31;20.40;15.10
530;DHT22;251;48.704;9.210;2023-06-10T06:52:58;20.50;15.00
530;DHT22;251;48.704;9.210;2023-06-10T06:55:25;20.60;15.00
530;DHT22;251;48.704;9.210;2023-06-10T06:57:51;20.70;13.80
530;DHT22;251;48.704;9.210;2023-06-10T07:00:18;20.80;13.80
530;DHT22;251;48.704;9.210;2023-06-10T07:02:45;20.90;13.90
530;DHT22;251;48.704;9.210;2023-06-10T07:05:13;20.90;14.10
530;DHT22;251;48.704;9.210;2023-06-10T07:07:40;21.00;12.90
530;DHT22;251;48.704;9.210;2023-06-10T07:10:08;21.10;13.20
530;DHT22;251;48.704;9.210;2023-06-10T07:12:34;21.10;14.50
530;DHT22;251;48.704;9.210;2023-06-10T07:15:01;21.30;13.30
530;DHT22;251;48.704;9.210;2023-06-10T07:17:28;21.40;13.30
530;DHT22;251;48.704;9.210;2023-06-10T07:19:55;21.50;12.40
530;DHT22;251;48.704;9.210;2023-06-10T07:22:24;21.50;12.00
530;DHT22;251;48.704;9.210;2023-06-10T07:24:52;21.60;12.10
530;DHT22;251;48.704;9.210;2023-06-10T07:27:20;21.70;12.30
530;DHT22;251;48.704;9.210;2023-06-10T07:29:47;21.60;11.60
530;DHT22;251;48.704;9.210;2023-06-10T07:32:13;21.70;12.00
530;DHT22;251;48.704;9.210;2023-06-10T07:34:40;21.80;12.40
530;DHT22;251;48.704;9.210;2023-06-10T07:37:07;21.90;12.40
530;DHT22;251;48.704;9.210;2023-06-10T07:39:35;22.00;11.10
530;DHT22;251;48.704;9.210;2023-06-10T07:42:02;22.00;10.90
530;DHT22;251;48.704;9.210;2023-06-10T07:44:29;22.10;10.90
530;DHT22;251;48.704;9.210;2023-06-10T07:46:56;22.20;10.70
530;DHT22;251;48.704;9.210;2023-06-10T07:49:23;22.20;11.40
530;DHT22;251;48.704;9.210;2023-06-10T07:51:50;22.40;10.50
530;DHT22;251;48.704;9.210;2023-06-10T07:54:17;22.50;9.80
530;DHT22;251;48.704;9.210;2023-06-10T07:56:45;22.60;10.10
530;DHT22;251;48.704;9.210;2023-06-10T07:59:13;22.60;10.00
530;DHT22;251;48.704;9.210;2023-06-10T08:01:40;22.70;9.40
530;DHT22;251;48.704;9.210;2023-06-10T08:04:08;22.70;8.80
530;DHT22;251;48.704;9.210;2023-06-10T08:06:35;22.90;9.00
530;DHT22;251;48.704;9.210;2023-06-10T08:09:02;23.00;8.40
530;DHT22;251;48.704;9.210;2023-06-10T08:11:29;23.10;8.70
530;DHT22;251;48.704;9.210;2023-06-10T08:13:57;23.20;8.40
530;DHT22;251;48.704;9.210;2023-06-10T08:16:24;23.30;8.40
530;DHT22;251;48.704;9.210;2023-06-10T08:18:51;23.40;7.60
530;DHT22;251;48.704;9.210;2023-06-10T08:21:18;23.50;8.20
530;DHT22;251;48.704;9.210;2023-06-10T08:23:45;23.50;7.60
530;DHT22;251;48.704;9.210;2023-06-10T08:26:12;23.70;7.70
530;DHT22;251;48.704;9.210;2023-06-10T08:28:38;23.70;7.40
530;DHT22;251;48.704;9.210;2023-06-10T08:31:06;23.80;6.60
530;DHT22;251;48.704;9.210;2023-06-10T08:33:33;23.80;6.60
530;DHT22;251;48.704;9.210;2023-06-10T08:36:00;23.80;6.20
530;DHT22;251;48.704;9.210;2023-06-10T08:38:27;23.90;7.00
530;DHT22;251;48.704;9.210;2023-06-10T08:40:56;24.10;6.90
530;DHT22;251;48.704;9.210;2023-06-10T08:43:30;24.20;6.10
530;DHT22;251;48.704;9.210;2023-06-10T08:46:00;24.30;5.40
530;DHT22;251;48.704;9.210;2023-06-10T08:48:30;24.40;5.30
530;DHT22;251;48.704;9.210;2023-06-10T08:50:57;24.50;5.10
530;DHT22;251;48.704;9.210;2023-06-10T08:53:26;24.60;4.60
530;DHT22;251;48.704;9.210;2023-06-10T08:55:56;24.70;5.30
530;DHT22;251;48.704;9.210;2023-06-10T08:58:25;24.80;4.90
530;DHT22;251;48.704;9.210;2023-06-10T09:00:52;24.80;4.40
530;DHT22;251;48.704;9.210;2023-06-10T09:03:19;25.00;3.50
530;DHT22;251;48.704;9.210;2023-06-10T09:05:48;25.10;4.50
530;DHT22;251;48.704;9.210;2023-06-10T09:08:15;25.20;3.70
530;DHT22;251;48.704;9.210;2023-06-10T09:10:43;25.20;3.30
530;DHT22;251;48.704;9.210;2023-06-10T09:13:09;25.40;3.70
530;DHT22;251;48.704;9.210;2023-06-10T09:15:36;25.50;3.20
530;DHT22;251;48.704;9.210;2023-06-10T09:18:05;25.80;3.40
530;DHT22;251;48.704;9.210;2023-06-10T09:20:32;26.00;2.90
530;DHT22;251;48.704;9.210;2023-06-10T09:23:01;26.10;2.40
530;DHT22;251;48.704;9.210;2023-06-10T09:25:34;26.00;1.90
530;DHT22;251;48.704;9.210;2023-06-10T09:28:02;26.00;2.20
530;DHT22;251;48.704;9.210;2023-06-10T09:30:31;26.00;3.40
530;DHT22;251;48.704;9.210;2023-06-10T09:33:00;25.90;2.90
530;DHT22;251;48.704;9.210;2023-06-10T09:35:28;25.90;3.30
530;DHT22;251;48.704;9.210;2023-06-10T09:37:56;25.80;3.10
530;DHT22;251;48.704;9.210;2023-06-10T09:40:25;25.80;2.20
530;DHT22;251;48.704;9.210;2023-06-10T09:42:53;25.60;4.90
530;DHT22;251;48.704;9.210;2023-06-10T09:45:20;25.70;3.90
530;DHT22;251;48.704;9.210;2023-06-10T09:47:50;25.80;4.00
530;DHT22;251;48.704;9.210;2023-06-10T09:50:17;25.90;2.50
530;DHT22;251;48.704;9.210;2023-06-10T09:52:45;25.90;2.50
530;DHT22;251;48.704;9.210;2023-06-10T09:55:12;25.90;2.70
530;DHT22;251;48.704;9.210;2023-06-10T09:57:40;26.00;2.20
530;DHT22;251;48.704;9.210;2023-06-10T10:00:11;25.90;1.80
530;DHT22;251;48.704;9.210;2023-06-10T10:02:47;26.00;2.90
530;DHT22;251;48.704;9.210;2023-06-10T10:05:14;26.20;1.90
530;DHT22;251;48.704;9.210;2023-06-10T10:07:42;26.50;1.00
530;DHT22;251;48.704;9.210;2023-06-10T10:10:09;26.80;1.00
530;DHT22;251;48.704;9.210;2023-06-10T10:12:38;26.90;1.30
530;DHT22;251;48.704;9.210;2023-06-10T10:15:08;27.20;1.00
530;DHT22;251;48.704;9.210;2023-06-10T10:17:39;27.60;1.00
530;DHT22;251;48.704;9.210;2023-06-10T10:20:08;28.00;1.00
530;DHT22;251;48.704;9.210;2023-06-10T10:22:39;28.30;1.00
530;DHT22;251;48.704;9.210;2023-06-10T10:25:10;28.30;1.00
530;DHT22;251;48.704;9.210;2023-06-10T10:27:42;28.30;1.00
530;DHT22;251;48.704;9.210;2023-06-10T10:30:14;28.40;1.00
530;DHT22;251;48.704;9.210;2023-06-10T10:32:48;28.10;1.00
530;DHT22;251;48.704;9.210;2023-06-10T10:35:19;28.20;1.00
530;DHT22;251;48.704;9.210;2023-06-10T10:37:48;28.30;1.00
530;DHT22;251;48.704;9.210;2023-06-10T10:40:16;28.30;1.00
530;DHT22;251;48.704;9.210;2023-06-10T10:42:43;28.20;1.00
530;DHT22;251;48.704;9.210;2023-06-10T10:45:12;28.10;1.00
530;DHT22;251;48.704;9.210;2023-06-10T10:47:40;28.10;1.00
530;DHT22;251;48.704;9.210;2023-06-10T10:50:14;28.60;1.00
530;DHT22;251;48.704;9.210;2023-06-10T10:52:53;29.40;1.00
530;DHT22;251;48.704;9.210;2023-06-10T10:55:20;29.40;1.00
530;DHT22;251;48.704;9.210;2023-06-10T10:57:57;29.80;1.00
530;DHT22;251;48.704;9.210;2023-06-10T11:00:27;30.30;1.00
530;DHT22;251;48.704;9.210;2023-06-10T11:03:05;30.80;1.00
530;DHT22;251;48.704;9.210;2023-06-10T11:05:37;31.30;1.00
530;DHT22;251;48.704;9.210;2023-06-10T11:08:05;31.50;1.00
530;DHT22;251;48.704;9.210;2023-06-10T11:10:32;31.80;1.00
530;DHT22;251;48.704;9.210;2023-06-10T11:13:00;32.40;1.00
530;DHT22;251;48.704;9.210;2023-06-10T11:15:33;32.70;1.00
530;DHT22;251;48.704;9.210;2023-06-10T11:18:22;33.10;1.00
530;DHT22;251;48.704;9.210;2023-06-10T11:20:54;33.00;1.00
530;DHT22;251;48.704;9.210;2023-06-10T11:23:42;33.60;1.00
530;DHT22;251;48.704;9.210;2023-06-10T11:26:17;34.30;1.00
530;DHT22;251;48.704;9.210;2023-06-10T11:29:05;35.20;1.00
530;DHT22;251;48.704;9.210;2023-06-10T11:31:42;35.30;1.00
530;DHT22;251;48.704;9.210;2023-06-10T11:34:10;35.60;1.00
530;DHT22;251;48.704;9.210;2023-06-10T11:36:39;35.20;1.00
530;DHT22;251;48.704;9.210;2023-06-10T11:39:08;34.70;1.00
530;DHT22;251;48.704;9.210;2023-06-10T11:41:36;33.80;1.00
530;DHT22;251;48.704;9.210;2023-06-10T11:44:06;32.70;1.00
530;DHT22;251;48.704;9.210;2023-06-10T11:46:35;33.20;1.00
530;DHT22;251;48.704;9.210;2023-06-10T11:49:02;34.20;1.00
530;DHT22;251;48.704;9.210;2023-06-10T11:51:33;34.80;1.00
530;DHT22;251;48.704;9.210;2023-06-10T11:54:00;35.80;1.00
530;DHT22;251;48.704;9.210;2023-06-10T11:56:28;36.60;1.00
530;DHT22;251;48.704;9.210;2023-06-10T11:58:56;36.40;1.00
530;DHT22;251;48.704;9.210;2023-06-10T12:01:26;35.20;1.00
530;DHT22;251;48.704;9.210;2023-06-10T12:03:58;35.00;1.00
530;DHT22;251;48.704;9.210;2023-06-10T12:06:25;35.90;1.00
530;DHT22;251;48.704;9.210;2023-06-10T12:08:53;37.20;1.00
530;DHT22;251;48.704;9.210;2023-06-10T12:11:20;38.10;1.00
530;DHT22;251;48.704;9.210;2023-06-10T12:13:48;39.10;1.00
530;DHT22;251;48.704;9.210;2023-06-10T12:16:15;39.80;1.00
530;DHT22;251;48.704;9.210;2023-06-10T12:18:43;39.10;1.00
530;DHT22;251;48.704;9.210;2023-06-10T12:21:19;39.20;1.00
530;DHT22;251;48.704;9.210;2023-06-10T12:24:04;39.30;1.00
530;DHT22;251;48.704;9.210;2023-06-10T12:26:36;39.50;1.00
530;DHT22;251;48.704;9.210;2023-06-10T12:29:16;39.40;1.00
530;DHT22;251;48.704;9.210;2023-06-10T12:31:58;38.80;1.00
530;DHT22;251;48.704;9.210;2023-06-10T12:34:33;39.50;1.00
530;DHT22;251;48.704;9.210;2023-06-10T12:37:03;40.10;1.00
530;DHT22;251;48.704;9.210;2023-06-10T12:39:30;40.50;1.00
530;DHT22;251;48.704;9.210;2023-06-10T12:41:57;40.70;1.00
530;DHT22;251;48.704;9.210;2023-06-10T12:44:31;40.20;1.00
530;DHT22;251;48.704;9.210;2023-06-10T12:46:58;39.00;1.00
530;DHT22;251;48.704;9.210;2023-06-10T12:49:25;37.50;1.00
530;DHT22;251;48.704;9.210;2023-06-10T12:51:53;36.50;1.00
530;DHT22;251;48.704;9.210;2023-06-10T12:54:21;36.70;1.00
530;DHT22;251;48.704;9.210;2023-06-10T12:56:48;37.40;1.00
530;DHT22;251;48.704;9.210;2023-06-10T12:59:15;37.50;1.00
530;DHT22;251;48.704;9.210;2023-06-10T13:01:42;38.10;1.00
530;DHT22;251;48.704;9.210;2023-06-10T13:04:09;38.90;1.00
530;DHT22;251;48.704;9.210;2023-06-10T13:06:35;39.80;1.00
530;DHT22;251;48.704;9.210;2023-06-10T13:09:08;40.70;1.00
530;DHT22;251;48.704;9.210;2023-06-10T13:11:36;41.30;1.00
530;DHT22;251;48.704;9.210;2023-06-10T13:14:03;41.90;1.00
530;DHT22;251;48.704;9.210;2023-06-10T13:16:32;42.80;1.00
530;DHT22;251;48.704;9.210;2023-06-10T13:18:59;43.40;1.00
530;DHT22;251;48.704;9.210;2023-06-10T13:21:26;41.90;1.00
530;DHT22;251;48.704;9.210;2023-06-10T13:23:53;40.10;1.00
530;DHT22;251;48.704;9.210;2023-06-10T13:26:20;38.20;1.00
530;DHT22;251;48.704;9.210;2023-06-10T13:28:48;36.50;1.00
530;DHT22;251;48.704;9.210;2023-06-10T13:31:15;35.20;1.00
530;DHT22;251;48.704;9.210;2023-06-10T13:33:42;34.10;1.00
530;DHT22;251;48.704;9.210;2023-06-10T13:36:09;33.20;1.00
530;DHT22;251;48.704;9.210;2023-06-10T13:38:37;32.50;1.00
530;DHT22;251;48.704;9.210;2023-06-10T13:41:04;32.80;1.00
530;DHT22;251;48.704;9.210;2023-06-10T13:43:31;34.10;1.00
530;DHT22;251;48.704;9.210;2023-06-10T13:45:59;35.70;1.00
530;DHT22;251;48.704;9.210;2023-06-10T13:48:26;37.60;1.00
530;DHT22;251;48.704;9.210;2023-06-10T13:50:53;39.00;1.00
530;DHT22;251;48.704;9.210;2023-06-10T13:53:19;40.00;1.00
530;DHT22;251;48.704;9.210;2023-06-10T13:55:46;39.40;1.00
530;DHT22;251;48.704;9.210;2023-06-10T13:58:13;38.70;1.00
530;DHT22;251;48.704;9.210;2023-06-10T14:00:40;37.40;1.00
530;DHT22;251;48.704;9.210;2023-06-10T14:03:08;36.30;1.00
530;DHT22;251;48.704;9.210;2023-06-10T14:05:35;35.90;1.00
530;DHT22;251;48.704;9.210;2023-06-10T14:08:02;36.70;1.00
530;DHT22;251;48.704;9.210;2023-06-10T14:10:29;37.40;1.00
530;DHT22;251;48.704;9.210;2023-06-10T14:12:55;38.30;1.00
530;DHT22;251;48.704;9.210;2023-06-10T14:15:22;39.00;1.00
530;DHT22;251;48.704;9.210;2023-06-10T14:17:49;39.80;1.00
530;DHT22;251;48.704;9.210;2023-06-10T14:20:17;40.30;1.00
530;DHT22;251;48.704;9.210;2023-06-10T14:22:44;41.10;1.00
530;DHT22;251;48.704;9.210;2023-06-10T14:25:11;41.80;1.00
530;DHT22;251;48.704;9.210;2023-06-10T14:27:37;40.90;1.00
530;DHT22;251;48.704;9.210;2023-06-10T14:30:05;39.50;1.00
530;DHT22;251;48.704;9.210;2023-06-10T14:32:32;37.80;1.00
530;DHT22;251;48.704;9.210;2023-06-10T14:34:59;36.30;1.00
530;DHT22;251;48.704;9.210;2023-06-10T14:37:28;34.90;1.00
530;DHT22;251;48.704;9.210;2023-06-10T14:39:54;33.80;1.00
530;DHT22;251;48.704;9.210;2023-06-10T14:42:21;33.00;1.00
530;DHT22;251;48.704;9.210;2023-06-10T14:44:48;32.50;1.00
530;DHT22;251;48.704;9.210;2023-06-10T14:47:15;32.10;1.00
530;DHT22;251;48.704;9.210;2023-06-10T14:49:42;32.70;1.00
530;DHT22;251;48.704;9.210;2023-06-10T14:52:09;33.90;1.00
530;DHT22;251;48.704;9.210;2023-06-10T14:54:37;34.90;1.00
530;DHT22;251;48.704;9.210;2023-06-10T14:57:05;35.70;1.00
530;DHT22;251;48.704;9.210;2023-06-10T14:59:32;35.50;1.00
530;DHT22;251;48.704;9.210;2023-06-10T15:02:00;34.70;1.00
530;DHT22;251;48.704;9.210;2023-06-10T15:04:27;34.00;1.00
530;DHT22;251;48.704;9.210;2023-06-10T15:06:54;33.40;1.00
530;DHT22;251;48.704;9.210;2023-06-10T15:09:21;32.90;1.00
530;DHT22;251;48.704;9.210;2023-06-10T15:11:49;32.50;1.00
530;DHT22;251;48.704;9.210;2023-06-10T15:14:15;31.90;1.00
530;DHT22;251;48.704;9.210;2023-06-10T15:16:42;31.40;1.00
530;DHT22;251;48.704;9.210;2023-06-10T15:19:09;31.10;1.00
530;DHT22;251;48.704;9.210;2023-06-10T15:21:36;30.80;1.00
530;DHT22;251;48.704;9.210;2023-06-10T15:24:03;30.60;1.00
530;DHT22;251;48.704;9.210;2023-06-10T15:26:30;31.00;1.00
530;DHT22;251;48.704;9.210;2023-06-10T15:28:58;31.80;1.00
530;DHT22;251;48.704;9.210;2023-06-10T15:31:29;32.70;1.00
530;DHT22;251;48.704;9.210;2023-06-10T15:33:57;33.50;1.00
530;DHT22;251;48.704;9.210;2023-06-10T15:36:24;34.00;1.00
530;DHT22;251;48.704;9.210;2023-06-10T15:38:51;34.50;1.00
530;DHT22;251;48.704;9.210;2023-06-10T15:41:18;35.30;1.00
530;DHT22;251;48.704;9.210;2023-06-10T15:43:44;36.20;1.00
530;DHT22;251;48.704;9.210;2023-06-10T15:46:13;36.90;1.00
530;DHT22;251;48.704;9.210;2023-06-10T15:48:40;37.40;1.00
530;DHT22;251;48.704;9.210;2023-06-10T15:51:06;38.00;1.00
530;DHT22;251;48.704;9.210;2023-06-10T15:53:33;37.80;1.00
530;DHT22;251;48.704;9.210;2023-06-10T15:56:01;36.90;1.00
530;DHT22;251;48.704;9.210;2023-06-10T15:58:28;35.60;1.00
530;DHT22;251;48.704;9.210;2023-06-10T16:00:55;34.50;1.00
530;DHT22;251;48.704;9.210;2023-06-10T16:03:23;33.60;1.00
530;DHT22;251;48.704;9.210;2023-06-10T16:05:50;32.70;1.00
530;DHT22;251;48.704;9.210;2023-06-10T16:08:17;32.00;1.00
530;DHT22;251;48.704;9.210;2023-06-10T16:10:44;32.40;1.00
530;DHT22;251;48.704;9.210;2023-06-10T16:13:11;33.50;1.00
530;DHT22;251;48.704;9.210;2023-06-10T16:15:37;34.60;1.00
530;DHT22;251;48.704;9.210;2023-06-10T16:18:04;35.50;1.00
530;DHT22;251;48.704;9.210;2023-06-10T16:20:32;36.30;1.00
530;DHT22;251;48.704;9.210;2023-06-10T16:23:00;37.00;1.00
530;DHT22;251;48.704;9.210;2023-06-10T16:25:27;37.50;1.00
530;DHT22;251;48.704;9.210;2023-06-10T16:27:54;37.90;1.00
530;DHT22;251;48.704;9.210;2023-06-10T16:30:21;38.10;1.00
530;DHT22;251;48.704;9.210;2023-06-10T16:32:48;38.40;1.00
530;DHT22;251;48.704;9.210;2023-06-10T16:35:16;38.80;1.00
530;DHT22;251;48.704;9.210;2023-06-10T16:37:44;38.90;1.00
530;DHT22;251;48.704;9.210;2023-06-10T16:40:11;38.90;1.00
530;DHT22;251;48.704;9.210;2023-06-10T16:42:38;39.20;1.00
530;DHT22;251;48.704;9.210;2023-06-10T16:45:06;39.00;1.00
530;DHT22;251;48.704;9.210;2023-06-10T16:47:33;38.60;1.00
530;DHT22;251;48.704;9.210;2023-06-10T16:50:00;38.50;1.00